Time;durP1;ratioP1;P1;durP2;ratioP2;P2;SDS_P1;SDS_P2;PMS_P1;PMS_P2;Temp;Humidity;BMP_temperature;BMP_pressure;BME280_temperature;BME280_humidity;BME280_pressure;Samples;Min_cycle;Max_cycle;Signal;HPM_P1;HPM_P2
2022/11/17 00:01:47;;;;;;;3.95;2.47;;;;;;;;;;5030320;28;20025;-77
2022/11/17 00:04:12;;;;;;;5.03;2.63;;;;;;;;;;5015859;28;20029;-77
2022/11/17 00:06:37;;;;;;;4.82;2.42;;;;;;;;;;5033891;28;20029;-77
2022/11/17 00:09:03;;;;;;;4.35;2.70;;;;;;;;;;5016033;28;20067;-77
2022/11/17 00:14:31;;;;;;;2.90;1.90;;;;;;;;;;5033506;28;20067;-77
2022/11/17 00:14:31;;;;;;;3.90;2.45;;;;;;;;;;5033559;28;20037;-77
2022/11/17 00:17:00;;;;;;;3.70;2.30;;;;;;;;;;5011738;28;20029;-77
2022/11/17 00:22:09;;;;;;;4.18;2.50;;;;;;;;;;4994030;28;20033;-77
2022/11/17 00:24:34;;;;;;;4.05;2.58;;;;;;;;;;4994331;28;20030;-77
2022/11/17 00:27:02;;;;;;;3.55;2.25;;;;;;;;;;4994322;28;20093;-77
2022/11/17 00:29:29;;;;;;;3.17;2.38;;;;;;;;;;4976639;28;20038;-77
2022/11/17 00:34:39;;;;;;;4.35;2.30;;;;;;;;;;5034070;28;20078;-77
2022/11/17 00:37:05;;;;;;;3.08;2.00;;;;;;;;;;5033519;28;20115;-76
2022/11/17 00:39:31;;;;;;;6.70;2.40;;;;;;;;;;5033435;28;20044;-77
2022/11/17 00:41:57;;;;;;;2.78;2.00;;;;;;;;;;5024194;28;20041;-78
2022/11/17 00:44:22;;;;;;;3.50;1.92;;;;;;;;;;4995925;28;20549;-77
2022/11/17 00:46:48;;;;;;;3.53;2.00;;;;;;;;;;5013528;28;20101;-77
2022/11/17 00:49:13;;;;;;;2.45;1.60;;;;;;;;;;4995850;28;20022;-77
2022/11/17 00:51:39;;;;;;;3.25;1.98;;;;;;;;;;5013459;28;20022;-77
2022/11/17 00:54:05;;;;;;;2.65;1.90;;;;;;;;;;5014290;28;20041;-77
2022/11/17 00:56:30;;;;;;;2.72;1.70;;;;;;;;;;4995971;28;20080;-77
2022/11/17 00:58:56;;;;;;;2.88;1.70;;;;;;;;;;5013552;28;20041;-77
2022/11/17 01:01:22;;;;;;;1.80;1.40;;;;;;;;;;5013458;28;20034;-78
2022/11/17 01:03:47;;;;;;;2.75;1.80;;;;;;;;;;4995828;28;20029;-78
2022/11/17 01:06:16;;;;;;;3.60;1.60;;;;;;;;;;4995817;28;20550;-77
2022/11/17 01:08:42;;;;;;;4.07;2.08;;;;;;;;;;5014906;28;20022;-76
2022/11/17 01:11:12;;;;;;;3.72;1.70;;;;;;;;;;5033163;28;20032;-77
2022/11/17 01:13:39;;;;;;;3.55;1.90;;;;;;;;;;5033771;28;20378;-78
2022/11/17 01:16:17;;;;;;;2.53;1.67;;;;;;;;;;5034885;28;20111;-78
2022/11/17 01:18:43;;;;;;;5.03;1.67;;;;;;;;;;5019545;28;20029;-78
2022/11/17 01:21:14;;;;;;;2.50;1.48;;;;;;;;;;5036354;28;20032;-77
2022/11/17 01:23:42;;;;;;;2.38;1.60;;;;;;;;;;4999452;28;20132;-77
2022/11/17 01:26:10;;;;;;;3.30;1.77;;;;;;;;;;5016836;28;20030;-77
2022/11/17 01:28:37;;;;;;;5.13;2.40;;;;;;;;;;5017201;28;20100;-77
2022/11/17 01:31:26;;;;;;;1.40;1.02;;;;;;;;;;5017067;28;20040;-77
2022/11/17 01:33:52;;;;;;;3.33;1.70;;;;;;;;;;5016755;28;20041;-76
2022/11/17 01:36:23;;;;;;;2.40;1.98;;;;;;;;;;5019710;28;20056;-77
2022/11/17 01:38:49;;;;;;;3.10;2.35;;;;;;;;;;5037991;28;20052;-77
2022/11/17 01:41:20;;;;;;;3.08;2.00;;;;;;;;;;5036483;28;20025;-77
2022/11/17 01:43:49;;;;;;;2.13;1.67;;;;;;;;;;5036742;28;20057;-76
2022/11/17 01:46:24;;;;;;;2.95;1.65;;;;;;;;;;5036304;28;20049;-77
2022/11/17 01:48:51;;;;;;;2.67;1.63;;;;;;;;;;5036230;28;20028;-77
2022/11/17 01:51:16;;;;;;;1.73;1.30;;;;;;;;;;5031165;28;20111;-77
2022/11/17 01:53:44;;;;;;;1.50;1.17;;;;;;;;;;4998672;28;20026;-76
2022/11/17 01:56:14;;;;;;;1.52;1.30;;;;;;;;;;5016317;28;20072;-77
2022/11/17 01:58:45;;;;;;;2.90;1.70;;;;;;;;;;5016351;28;20022;-78
2022/11/17 02:01:10;;;;;;;1.80;1.40;;;;;;;;;;5016433;28;20033;-77
2022/11/17 02:03:38;;;;;;;1.75;1.30;;;;;;;;;;5016194;28;20029;-76
2022/11/17 02:06:10;;;;;;;3.13;1.40;;;;;;;;;;5021968;28;20029;-77
2022/11/17 02:08:38;;;;;;;2.20;1.17;;;;;;;;;;5016666;28;20399;-78
2022/11/17 02:11:10;;;;;;;2.53;1.13;;;;;;;;;;5021390;28;20117;-78
2022/11/17 02:13:36;;;;;;;1.38;1.10;;;;;;;;;;5008056;28;20165;-77
2022/11/17 02:16:02;;;;;;;1.55;1.20;;;;;;;;;;5016157;28;20026;-77
2022/11/17 02:18:27;;;;;;;1.38;1.10;;;;;;;;;;4998361;28;20036;-77
2022/11/17 02:21:23;;;;;;;1.83;1.20;;;;;;;;;;5017006;28;20030;-77
2022/11/17 02:24:09;;;;;;;1.67;1.10;;;;;;;;;;5032500;28;20080;-77
2022/11/17 02:27:02;;;;;;;1.40;1.10;;;;;;;;;;5016175;28;20117;-76
2022/11/17 02:29:33;;;;;;;3.15;1.00;;;;;;;;;;5015793;28;20037;-77
2022/11/17 02:32:05;;;;;;;3.25;1.23;;;;;;;;;;4998085;28;20112;-77
2022/11/17 02:35:22;;;;;;;1.20;0.90;;;;;;;;;;4998235;28;20033;-77
2022/11/17 02:38:18;;;;;;;1.25;0.95;;;;;;;;;;5013380;28;20065;-77
2022/11/17 02:40:51;;;;;;;1.38;1.10;;;;;;;;;;5006379;28;20034;-77
2022/11/17 02:46:18;;;;;;;5.18;1.25;;;;;;;;;;5013189;28;20041;-78
2022/11/17 02:48:57;;;;;;;1.67;1.13;;;;;;;;;;5009022;28;20034;-78
2022/11/17 02:51:23;;;;;;;1.30;0.90;;;;;;;;;;5015872;28;20034;-77
2022/11/17 02:53:55;;;;;;;1.60;1.02;;;;;;;;;;4997750;28;20033;-77
2022/11/17 02:56:20;;;;;;;1.23;0.88;;;;;;;;;;5032826;28;20037;-77
2022/11/17 02:58:49;;;;;;;1.25;1.05;;;;;;;;;;5035591;28;20021;-76
2022/11/17 03:01:21;;;;;;;1.25;1.00;;;;;;;;;;5035239;28;20097;-77
2022/11/17 03:04:07;;;;;;;1.50;1.00;;;;;;;;;;5035129;28;20451;-79
2022/11/17 03:07:10;;;;;;;1.67;0.98;;;;;;;;;;5035483;28;20467;-77
2022/11/17 03:09:57;;;;;;;2.67;0.93;;;;;;;;;;4995680;28;20069;-78
2022/11/17 03:12:32;;;;;;;1.13;0.90;;;;;;;;;;5015347;28;20030;-77
2022/11/17 03:15:35;;;;;;;1.20;0.90;;;;;;;;;;5014995;28;20437;-78
2022/11/17 03:18:29;;;;;;;1.60;1.23;;;;;;;;;;4999130;28;20084;-80
2022/11/17 03:21:04;;;;;;;1.60;1.05;;;;;;;;;;5017076;28;20121;-79
2022/11/17 03:23:45;;;;;;;1.23;1.13;;;;;;;;;;4998447;28;20037;-78
2022/11/17 03:26:15;;;;;;;1.65;1.30;;;;;;;;;;4995021;28;20030;-77
2022/11/17 03:28:43;;;;;;;1.52;1.08;;;;;;;;;;5007011;28;20395;-76
2022/11/17 03:31:10;;;;;;;1.30;1.10;;;;;;;;;;5013644;28;20022;-76
2022/11/17 03:33:37;;;;;;;1.52;1.13;;;;;;;;;;5013617;28;20066;-78
2022/11/17 03:36:07;;;;;;;1.95;1.27;;;;;;;;;;5013957;28;20395;-76
2022/11/17 03:38:38;;;;;;;2.42;1.30;;;;;;;;;;5014160;28;20385;-77
2022/11/17 03:41:06;;;;;;;1.67;1.30;;;;;;;;;;5031935;28;20116;-77
2022/11/17 03:43:32;;;;;;;4.95;1.30;;;;;;;;;;5034942;28;20396;-78
2022/11/17 03:46:02;;;;;;;2.85;1.27;;;;;;;;;;5034813;28;20018;-78
2022/11/17 03:48:34;;;;;;;1.95;1.25;;;;;;;;;;5034808;28;20034;-78
2022/11/17 03:51:14;;;;;;;1.40;1.25;;;;;;;;;;5034861;28;20083;-77
2022/11/17 03:53:40;;;;;;;2.67;1.25;;;;;;;;;;5034712;28;20036;-78
2022/11/17 03:56:27;;;;;;;2.17;1.35;;;;;;;;;;4986286;28;20034;-77
2022/11/17 03:59:10;;;;;;;2.55;1.40;;;;;;;;;;4977257;28;20408;-76
2022/11/17 04:01:35;;;;;;;1.95;1.25;;;;;;;;;;5002196;28;20030;-76
2022/11/17 04:04:01;;;;;;;1.45;1.25;;;;;;;;;;5014164;28;20103;-77
2022/11/17 04:06:26;;;;;;;2.20;1.30;;;;;;;;;;4996278;28;20029;-77
2022/11/17 04:08:51;;;;;;;1.45;1.17;;;;;;;;;;5014557;28;20113;-76
2022/11/17 04:16:44;;;;;;;1.40;1.23;;;;;;;;;;5008210;28;20410;-78
2022/11/17 04:19:09;;;;;;;1.50;1.30;;;;;;;;;;5033848;28;20021;-78
2022/11/17 04:21:35;;;;;;;2.22;1.13;;;;;;;;;;5034089;28;20025;-77
2022/11/17 04:24:00;;;;;;;1.42;1.13;;;;;;;;;;5033931;28;20022;-77
2022/11/17 04:29:09;;;;;;;1.98;1.60;;;;;;;;;;5034519;28;20033;-78
2022/11/17 04:31:34;;;;;;;2.13;1.67;;;;;;;;;;5023663;28;20029;-77
2022/11/17 04:34:02;;;;;;;2.60;1.80;;;;;;;;;;4996464;28;20018;-78
2022/11/17 04:36:45;;;;;;;2.92;1.80;;;;;;;;;;5013625;28;20061;-77
2022/11/17 04:39:12;;;;;;;3.65;1.80;;;;;;;;;;5014020;28;20609;-78
2022/11/17 04:41:53;;;;;;;2.40;1.73;;;;;;;;;;4996148;28;20032;-78
2022/11/17 04:44:20;;;;;;;2.60;1.85;;;;;;;;;;4996668;28;20156;-78
2022/11/17 04:46:45;;;;;;;1.90;1.52;;;;;;;;;;5009901;28;20033;-78
2022/11/17 04:49:12;;;;;;;3.10;1.90;;;;;;;;;;5033447;28;20021;-78
2022/11/17 04:51:38;;;;;;;2.17;1.60;;;;;;;;;;5036774;28;20025;-78
2022/11/17 04:54:05;;;;;;;1.98;1.60;;;;;;;;;;5037712;28;20025;-77
2022/11/17 04:56:31;;;;;;;2.92;1.50;;;;;;;;;;5037575;28;20109;-79
2022/11/17 04:58:56;;;;;;;3.60;1.70;;;;;;;;;;5020695;28;20208;-77
2022/11/17 05:01:25;;;;;;;3.17;1.77;;;;;;;;;;5006696;28;20402;-76
2022/11/17 05:03:56;;;;;;;2.63;1.80;;;;;;;;;;5000479;28;20033;-77
2022/11/17 05:06:24;;;;;;;2.50;1.67;;;;;;;;;;5018254;28;20030;-77
2022/11/17 05:08:54;;;;;;;4.47;1.80;;;;;;;;;;5017630;28;20034;-78
2022/11/17 05:14:03;;;;;;;1.63;1.30;;;;;;;;;;5018054;28;20447;-78
2022/11/17 05:19:16;;;;;;;2.95;1.35;;;;;;;;;;5037084;28;20124;-77
2022/11/17 05:21:41;;;;;;;1.70;1.40;;;;;;;;;;5037285;28;20437;-77
2022/11/17 05:24:07;;;;;;;1.95;1.50;;;;;;;;;;5037160;28;20025;-77
2022/11/17 05:26:34;;;;;;;2.22;1.50;;;;;;;;;;5036844;28;20108;-77
2022/11/17 05:29:01;;;;;;;1.60;1.40;;;;;;;;;;5036741;28;20105;-77
2022/11/17 05:31:27;;;;;;;2.63;1.30;;;;;;;;;;5018621;28;20029;-77
2022/11/17 05:33:53;;;;;;;2.05;1.20;;;;;;;;;;5016979;28;20080;-78
2022/11/17 05:36:20;;;;;;;4.13;1.52;;;;;;;;;;5016624;28;20025;-76
2022/11/17 05:38:46;;;;;;;1.55;1.25;;;;;;;;;;5016711;28;20029;-77
2022/11/17 05:41:12;;;;;;;1.77;1.33;;;;;;;;;;5017410;28;20021;-78
2022/11/17 05:43:38;;;;;;;2.60;1.10;;;;;;;;;;4999573;28;20391;-77
2022/11/17 05:46:03;;;;;;;1.73;1.25;;;;;;;;;;5014676;28;20041;-76
2022/11/17 05:48:29;;;;;;;1.90;1.30;;;;;;;;;;5002789;28;20033;-77
2022/11/17 05:50:55;;;;;;;2.60;1.50;;;;;;;;;;4996769;28;20022;-77
2022/11/17 05:53:22;;;;;;;1.90;1.38;;;;;;;;;;4979814;28;20026;-77
2022/11/17 05:55:47;;;;;;;4.68;1.40;;;;;;;;;;4997124;28;20026;-77
2022/11/17 05:58:25;;;;;;;3.90;1.40;;;;;;;;;;4996765;28;20033;-78
2022/11/17 06:00:52;;;;;;;1.08;0.98;;;;;;;;;;5030765;28;20497;-76
2022/11/17 06:03:22;;;;;;;2.65;1.10;;;;;;;;;;5035436;28;20124;-77
2022/11/17 06:05:48;;;;;;;1.70;1.27;;;;;;;;;;5036269;28;20021;-77
2022/11/17 06:08:13;;;;;;;1.40;1.05;;;;;;;;;;5036130;28;20071;-77
2022/11/17 06:10:38;;;;;;;2.15;1.45;;;;;;;;;;5018342;28;20079;-77
2022/11/17 06:13:04;;;;;;;2.05;1.50;;;;;;;;;;5035791;28;20031;-76
2022/11/17 06:15:30;;;;;;;2.20;1.60;;;;;;;;;;5024429;28;20026;-77
2022/11/17 06:18:00;;;;;;;2.00;1.27;;;;;;;;;;5016283;28;20022;-77
2022/11/17 06:20:37;;;;;;;1.50;1.10;;;;;;;;;;5016486;28;20106;-78
2022/11/17 06:23:06;;;;;;;3.30;1.63;;;;;;;;;;4998546;28;20403;-78
2022/11/17 06:25:34;;;;;;;2.83;1.67;;;;;;;;;;5016121;28;20026;-78
2022/11/17 06:28:02;;;;;;;2.75;1.90;;;;;;;;;;5016653;28;20030;-77
2022/11/17 06:30:28;;;;;;;2.67;1.40;;;;;;;;;;5028722;28;20041;-77
2022/11/17 06:32:55;;;;;;;1.92;1.20;;;;;;;;;;5036620;28;20021;-78
2022/11/17 06:35:21;;;;;;;2.28;1.65;;;;;;;;;;5036073;28;20028;-78
2022/11/17 06:37:46;;;;;;;2.85;1.33;;;;;;;;;;5035853;28;20026;-77
2022/11/17 06:40:12;;;;;;;2.85;1.20;;;;;;;;;;5031803;28;20156;-77
2022/11/17 06:45:22;;;;;;;2.58;1.48;;;;;;;;;;5016592;28;20172;-77
2022/11/17 06:47:47;;;;;;;1.45;1.10;;;;;;;;;;5015575;28;20535;-76
2022/11/17 06:50:12;;;;;;;1.35;1.00;;;;;;;;;;5011424;28;20030;-77
2022/11/17 06:52:38;;;;;;;2.25;1.08;;;;;;;;;;4978369;28;20027;-77
2022/11/17 06:55:03;;;;;;;1.80;1.13;;;;;;;;;;4996175;28;20053;-77
2022/11/17 06:57:28;;;;;;;1.75;1.25;;;;;;;;;;4996202;28;20038;-77
2022/11/17 06:59:54;;;;;;;2.53;1.50;;;;;;;;;;5013861;28;20053;-77
2022/11/17 07:02:21;;;;;;;1.52;0.98;;;;;;;;;;5035045;28;20025;-76
2022/11/17 07:04:46;;;;;;;2.92;1.60;;;;;;;;;;5034824;28;20021;-77
2022/11/17 07:07:12;;;;;;;2.22;1.50;;;;;;;;;;5035387;28;20036;-77
2022/11/17 07:09:37;;;;;;;1.42;1.00;;;;;;;;;;5026516;28;20438;-78
2022/11/17 07:12:02;;;;;;;1.70;1.10;;;;;;;;;;5015406;28;20086;-78
2022/11/17 07:14:28;;;;;;;2.10;0.70;;;;;;;;;;5014335;28;20037;-77
2022/11/17 07:16:53;;;;;;;2.40;1.30;;;;;;;;;;5011060;28;20029;-76
2022/11/17 07:19:18;;;;;;;1.60;0.95;;;;;;;;;;5034820;28;20075;-77
2022/11/17 07:21:43;;;;;;;2.13;1.33;;;;;;;;;;5016712;28;20025;-77
2022/11/17 07:24:12;;;;;;;2.92;1.17;;;;;;;;;;5026626;28;20025;-77
2022/11/17 07:26:37;;;;;;;1.10;0.77;;;;;;;;;;5014869;28;20040;-77
2022/11/17 07:29:02;;;;;;;1.63;1.10;;;;;;;;;;4997902;28;20018;-78
2022/11/17 07:31:27;;;;;;;2.03;1.42;;;;;;;;;;5016039;28;20030;-78
2022/11/17 07:33:53;;;;;;;1.88;1.23;;;;;;;;;;5015229;28;20060;-77
2022/11/17 07:36:18;;;;;;;3.42;1.55;;;;;;;;;;5016493;28;20029;-78
2022/11/17 07:38:44;;;;;;;1.92;1.40;;;;;;;;;;5004323;28;20487;-77
2022/11/17 07:41:11;;;;;;;3.60;1.65;;;;;;;;;;5019106;28;20061;-78
2022/11/17 07:43:37;;;;;;;1.48;0.88;;;;;;;;;;5036462;28;20561;-77
2022/11/17 07:46:04;;;;;;;6.85;1.60;;;;;;;;;;5018644;28;20025;-79
2022/11/17 07:48:29;;;;;;;2.10;1.27;;;;;;;;;;5017650;28;20116;-77
2022/11/17 07:50:57;;;;;;;2.58;1.70;;;;;;;;;;5018536;28;20064;-78
2022/11/17 07:53:22;;;;;;;1.75;1.38;;;;;;;;;;5029961;28;20132;-78
2022/11/17 07:55:48;;;;;;;3.15;1.73;;;;;;;;;;4994425;28;20498;-78
2022/11/17 07:58:13;;;;;;;2.97;1.48;;;;;;;;;;4983801;28;20034;-78
2022/11/17 08:00:38;;;;;;;2.53;1.73;;;;;;;;;;5012747;28;20077;-78
2022/11/17 08:03:05;;;;;;;2.63;1.38;;;;;;;;;;4997623;28;20056;-78
2022/11/17 08:05:33;;;;;;;2.47;1.52;;;;;;;;;;5015636;28;20104;-78
2022/11/17 08:07:59;;;;;;;2.60;1.38;;;;;;;;;;5012260;28;20068;-79
2022/11/17 08:10:26;;;;;;;2.28;1.48;;;;;;;;;;5006178;28;20017;-78
2022/11/17 08:12:52;;;;;;;2.58;1.10;;;;;;;;;;4997084;28;20395;-79
2022/11/17 08:15:21;;;;;;;3.00;1.63;;;;;;;;;;4999348;28;20029;-79
2022/11/17 08:17:51;;;;;;;1.17;1.02;;;;;;;;;;4986149;28;20030;-78
2022/11/17 08:20:16;;;;;;;1.67;1.25;;;;;;;;;;4995281;28;20022;-78
2022/11/17 08:22:41;;;;;;;2.00;1.58;;;;;;;;;;5002329;28;20025;-78
2022/11/17 08:25:07;;;;;;;2.03;1.45;;;;;;;;;;5034115;28;20072;-78
2022/11/17 08:27:33;;;;;;;1.65;0.95;;;;;;;;;;5030612;28;20167;-79
2022/11/17 08:29:59;;;;;;;2.28;1.40;;;;;;;;;;4995590;28;20467;-78
2022/11/17 08:32:24;;;;;;;2.78;1.50;;;;;;;;;;4997170;28;20030;-79
2022/11/17 08:34:49;;;;;;;3.28;1.27;;;;;;;;;;4996939;28;20029;-78
2022/11/17 08:37:15;;;;;;;2.80;1.38;;;;;;;;;;5025437;28;20033;-79
2022/11/17 08:39:40;;;;;;;1.80;1.20;;;;;;;;;;5032354;28;20467;-78
2022/11/17 08:42:05;;;;;;;2.50;1.23;;;;;;;;;;5012039;28;20034;-79
2022/11/17 08:44:30;;;;;;;5.88;1.70;;;;;;;;;;5008312;28;20026;-78
2022/11/17 08:46:56;;;;;;;2.47;1.50;;;;;;;;;;5014260;28;20030;-78
2022/11/17 08:49:21;;;;;;;1.65;1.25;;;;;;;;;;5031480;28;20450;-78
2022/11/17 08:51:46;;;;;;;1.83;1.20;;;;;;;;;;5034607;28;20605;-77
2022/11/17 08:54:12;;;;;;;3.30;1.60;;;;;;;;;;5032839;28;20390;-77
2022/11/17 08:56:37;;;;;;;2.05;1.23;;;;;;;;;;5034318;28;20022;-78
2022/11/17 08:59:02;;;;;;;4.35;1.55;;;;;;;;;;5003167;28;20057;-78
2022/11/17 09:01:28;;;;;;;2.15;1.40;;;;;;;;;;5022992;28;20018;-79
2022/11/17 09:03:53;;;;;;;2.28;1.50;;;;;;;;;;5035193;28;20081;-79
2022/11/17 09:06:18;;;;;;;2.85;1.70;;;;;;;;;;5008612;28;20038;-79
2022/11/17 09:08:44;;;;;;;2.40;1.70;;;;;;;;;;4996845;28;20026;-80
2022/11/17 09:11:10;;;;;;;3.67;1.70;;;;;;;;;;5034995;28;20095;-78
2022/11/17 09:13:36;;;;;;;2.58;1.42;;;;;;;;;;5016347;28;20399;-80
2022/11/17 09:16:07;;;;;;;3.13;1.30;;;;;;;;;;5031070;28;20041;-79
2022/11/17 09:18:33;;;;;;;2.15;1.40;;;;;;;;;;5015412;28;20083;-78
2022/11/17 09:21:04;;;;;;;3.28;1.60;;;;;;;;;;4993175;28;20030;-79
2022/11/17 09:23:30;;;;;;;1.95;1.42;;;;;;;;;;4994543;28;20088;-79
2022/11/17 09:25:56;;;;;;;2.00;1.10;;;;;;;;;;5014186;28;20024;-78
2022/11/17 09:28:25;;;;;;;2.03;1.40;;;;;;;;;;4993819;28;20080;-79
2022/11/17 09:30:51;;;;;;;2.08;1.25;;;;;;;;;;5011373;28;20047;-78
2022/11/17 09:33:16;;;;;;;2.78;1.55;;;;;;;;;;4992962;28;20033;-77
2022/11/17 09:35:41;;;;;;;4.28;1.77;;;;;;;;;;5011941;28;20026;-79
2022/11/17 09:38:07;;;;;;;2.13;1.50;;;;;;;;;;5013304;28;20048;-77
2022/11/17 09:40:32;;;;;;;2.17;1.13;;;;;;;;;;5013738;28;20419;-79
2022/11/17 09:42:58;;;;;;;3.92;1.80;;;;;;;;;;5008016;28;20049;-78
2022/11/17 09:45:29;;;;;;;1.23;0.82;;;;;;;;;;4995000;28;20399;-78
2022/11/17 09:48:12;;;;;;;2.22;1.55;;;;;;;;;;5013953;28;20101;-79
2022/11/17 09:50:43;;;;;;;5.28;1.38;;;;;;;;;;4995934;28;20216;-79
2022/11/17 09:53:37;;;;;;;3.17;1.35;;;;;;;;;;5014697;28;20045;-78
2022/11/17 09:56:07;;;;;;;2.53;1.45;;;;;;;;;;4996315;28;20561;-79
2022/11/17 09:58:44;;;;;;;1.95;1.00;;;;;;;;;;5017307;28;20029;-79
2022/11/17 10:01:16;;;;;;;1.30;0.88;;;;;;;;;;5034030;28;20053;-78
2022/11/17 10:03:43;;;;;;;2.28;1.80;;;;;;;;;;4977974;28;20034;-81
2022/11/17 10:06:22;;;;;;;3.05;1.60;;;;;;;;;;4995161;28;20022;-79
2022/11/17 10:08:59;;;;;;;2.50;1.70;;;;;;;;;;4995156;28;20072;-78
2022/11/17 10:11:34;;;;;;;2.70;1.70;;;;;;;;;;5000056;28;20030;-78
2022/11/17 10:14:12;;;;;;;3.40;1.70;;;;;;;;;;5012915;28;20029;-77
2022/11/17 10:16:59;;;;;;;2.42;1.70;;;;;;;;;;5003635;28;20038;-79
2022/11/17 10:19:33;;;;;;;2.35;1.50;;;;;;;;;;5013441;28;20038;-79
2022/11/17 10:22:01;;;;;;;;;;;;;;;;;;4998536;28;20403;-77
2022/11/17 10:24:46;;;;;;;1.90;1.50;;;;;;;;;;5010119;28;20459;-83
2022/11/17 10:27:31;;;;;;;2.38;1.50;;;;;;;;;;5030665;28;20033;-78
2022/11/17 10:30:05;;;;;;;2.10;1.45;;;;;;;;;;5014951;28;20029;-77
2022/11/17 10:32:34;;;;;;;2.33;1.65;;;;;;;;;;5034435;28;20031;-79
2022/11/17 10:35:14;;;;;;;1.77;1.30;;;;;;;;;;5031988;28;20037;-79
2022/11/17 10:37:44;;;;;;;3.33;1.92;;;;;;;;;;5033935;28;20041;-80
2022/11/17 10:40:25;;;;;;;2.55;1.50;;;;;;;;;;5034735;28;20108;-79
2022/11/17 10:43:04;;;;;;;2.55;1.55;;;;;;;;;;5014527;28;20112;-78
2022/11/17 10:45:29;;;;;;;3.15;1.58;;;;;;;;;;5033306;28;20490;-77
2022/11/17 10:48:23;;;;;;;5.05;1.67;;;;;;;;;;5031621;28;20033;-80
2022/11/17 10:51:18;;;;;;;2.50;1.48;;;;;;;;;;5032256;28;20490;-79
2022/11/17 10:54:08;;;;;;;2.25;1.40;;;;;;;;;;5026299;28;20029;-80
2022/11/17 10:56:43;;;;;;;2.03;1.00;;;;;;;;;;5028170;28;20087;-79
2022/11/17 10:59:08;;;;;;;2.90;1.17;;;;;;;;;;5012369;28;20457;-78
2022/11/17 11:01:42;;;;;;;2.60;1.63;;;;;;;;;;5012921;28;20092;-78
2022/11/17 11:04:28;;;;;;;4.82;1.70;;;;;;;;;;4994959;28;20318;-79
2022/11/17 11:07:09;;;;;;;5.30;1.85;;;;;;;;;;5012733;28;20026;-78
2022/11/17 11:09:42;;;;;;;2.13;1.40;;;;;;;;;;5012677;28;20021;-76
2022/11/17 11:12:14;;;;;;;2.15;1.65;;;;;;;;;;5024310;28;20041;-78
2022/11/17 11:14:51;;;;;;;5.60;2.00;;;;;;;;;;4999456;28;20403;-77
2022/11/17 11:17:17;;;;;;;2.70;1.70;;;;;;;;;;5013695;28;20030;-78
2022/11/17 11:19:47;;;;;;;3.55;1.92;;;;;;;;;;5012306;28;20080;-77
2022/11/17 11:22:26;;;;;;;3.20;1.88;;;;;;;;;;5012381;28;20022;-78
2022/11/17 11:25:00;;;;;;;2.53;1.67;;;;;;;;;;4994180;28;20488;-77
2022/11/17 11:27:38;;;;;;;3.42;2.25;;;;;;;;;;5012268;28;20033;-78
2022/11/17 11:30:12;;;;;;;4.07;1.83;;;;;;;;;;5009029;28;20040;-80
2022/11/17 11:33:05;;;;;;;3.80;1.90;;;;;;;;;;5032500;28;20060;-79
2022/11/17 11:35:55;;;;;;;3.85;2.13;;;;;;;;;;5030969;28;20033;-78
2022/11/17 11:38:47;;;;;;;3.28;1.80;;;;;;;;;;5013119;28;20029;-78
2022/11/17 11:41:31;;;;;;;4.00;2.10;;;;;;;;;;5031273;28;20044;-79
2022/11/17 11:44:33;;;;;;;3.37;2.00;;;;;;;;;;5031098;28;20036;-78
2022/11/17 11:47:28;;;;;;;3.13;2.00;;;;;;;;;;5031094;28;20052;-77
2022/11/17 11:50:02;;;;;;;2.67;1.80;;;;;;;;;;5029139;28;20115;-79
2022/11/17 11:52:39;;;;;;;3.38;2.08;;;;;;;;;;5031013;28;20350;-78
2022/11/17 11:55:33;;;;;;;2.80;1.65;;;;;;;;;;5031962;28;20431;-78
2022/11/17 11:58:06;;;;;;;4.03;1.98;;;;;;;;;;5032145;28;20045;-79
2022/11/17 12:00:32;;;;;;;1.35;1.05;;;;;;;;;;5030393;28;20037;-77
2022/11/17 12:03:41;;;;;;;3.20;1.90;;;;;;;;;;5013136;28;20091;-77
2022/11/17 12:06:40;;;;;;;3.08;1.70;;;;;;;;;;4998934;28;20411;-78
2022/11/17 12:09:14;;;;;;;2.13;1.48;;;;;;;;;;4993697;28;20030;-78
2022/11/17 12:11:59;;;;;;;3.30;1.80;;;;;;;;;;5010971;28;20025;-77
2022/11/17 12:14:25;;;;;;;4.85;2.20;;;;;;;;;;4993462;28;20026;-79
2022/11/17 12:17:00;;;;;;;3.20;2.00;;;;;;;;;;4998937;28;20097;-77
2022/11/17 12:19:52;;;;;;;3.60;1.98;;;;;;;;;;5030667;28;20040;-78
2022/11/17 12:22:47;;;;;;;3.55;1.88;;;;;;;;;;5031060;28;20298;-78
2022/11/17 12:25:17;;;;;;;3.60;1.40;;;;;;;;;;5013020;28;20065;-78
2022/11/17 12:27:53;;;;;;;2.70;1.83;;;;;;;;;;5012870;28;20258;-77
2022/11/17 12:30:36;;;;;;;3.72;2.22;;;;;;;;;;5013279;28;20082;-78
2022/11/17 12:33:07;;;;;;;3.42;2.10;;;;;;;;;;4995663;28;20450;-79
2022/11/17 12:35:40;;;;;;;3.88;2.25;;;;;;;;;;5012269;28;20028;-80
2022/11/17 12:38:18;;;;;;;4.05;2.05;;;;;;;;;;5010392;28;20037;-80
2022/11/17 12:40:52;;;;;;;2.90;1.73;;;;;;;;;;5011352;28;20064;-78
2022/11/17 12:43:26;;;;;;;4.38;2.28;;;;;;;;;;5011026;28;20430;-79
2022/11/17 12:45:54;;;;;;;3.75;1.90;;;;;;;;;;5012347;28;20462;-80
2022/11/17 12:48:22;;;;;;;4.35;2.25;;;;;;;;;;5013550;28;20025;-79
2022/11/17 12:50:52;;;;;;;2.25;1.50;;;;;;;;;;5030864;28;20025;-79
2022/11/17 12:53:31;;;;;;;3.63;1.88;;;;;;;;;;5031407;28;20022;-78
2022/11/17 12:56:35;;;;;;;4.47;2.72;;;;;;;;;;5031367;28;20033;-80
2022/11/17 12:59:03;;;;;;;3.35;2.15;;;;;;;;;;5017567;28;20033;-78
2022/11/17 13:01:40;;;;;;;4.88;2.47;;;;;;;;;;5020856;28;20034;-78
2022/11/17 13:04:16;;;;;;;4.55;2.53;;;;;;;;;;5010050;28;20034;-79
2022/11/17 13:07:00;;;;;;;4.55;2.40;;;;;;;;;;5010312;28;20034;-78
2022/11/17 13:09:28;;;;;;;9.43;3.40;;;;;;;;;;4992343;28;20057;-79
2022/11/17 13:12:03;;;;;;;5.75;3.75;;;;;;;;;;4993938;28;20121;-77
2022/11/17 13:14:29;;;;;;;3.53;2.55;;;;;;;;;;4995580;28;20037;-79
2022/11/17 13:16:55;;;;;;;5.15;2.97;;;;;;;;;;4997353;28;20057;-77
2022/11/17 13:19:41;;;;;;;7.00;3.60;;;;;;;;;;5014207;28;20072;-79
2022/11/17 13:22:17;;;;;;;4.45;2.65;;;;;;;;;;5014404;28;20434;-78
2022/11/17 13:24:46;;;;;;;3.90;2.72;;;;;;;;;;4999035;28;20068;-79
2022/11/17 13:27:29;;;;;;;5.13;2.40;;;;;;;;;;5016332;28;20119;-78
2022/11/17 13:30:12;;;;;;;3.30;1.90;;;;;;;;;;5017407;28;20017;-79
2022/11/17 13:32:39;;;;;;;5.43;2.20;;;;;;;;;;5016965;28;20465;-78
2022/11/17 13:35:37;;;;;;;3.47;2.28;;;;;;;;;;5036965;28;20025;-77
2022/11/17 13:38:11;;;;;;;4.40;2.10;;;;;;;;;;5034835;28;20080;-79
2022/11/17 13:40:38;;;;;;;3.47;2.22;;;;;;;;;;5036967;28;20029;-77
2022/11/17 13:43:06;;;;;;;2.95;2.15;;;;;;;;;;5037440;28;20079;-77
2022/11/17 13:45:33;;;;;;;2.20;1.63;;;;;;;;;;5037247;28;20437;-78
2022/11/17 13:48:02;;;;;;;5.10;2.70;;;;;;;;;;5037816;28;20029;-78
2022/11/17 13:50:30;;;;;;;3.63;2.53;;;;;;;;;;5037297;28;20017;-79
2022/11/17 13:53:17;;;;;;;5.70;2.85;;;;;;;;;;5028747;28;20545;-77
2022/11/17 13:55:45;;;;;;;3.35;2.25;;;;;;;;;;5017040;28;20037;-78
2022/11/17 13:58:36;;;;;;;4.38;2.08;;;;;;;;;;4999618;28;20025;-77
2022/11/17 14:01:02;;;;;;;3.67;2.03;;;;;;;;;;5016938;28;20022;-77
2022/11/17 14:03:32;;;;;;;3.33;2.22;;;;;;;;;;5017346;28;20045;-77
2022/11/17 14:05:57;;;;;;;2.35;1.58;;;;;;;;;;5016562;28;20552;-78
2022/11/17 14:08:28;;;;;;;4.15;2.10;;;;;;;;;;4998750;28;20049;-77
2022/11/17 14:11:14;;;;;;;3.55;2.05;;;;;;;;;;4998880;28;20018;-77
2022/11/17 14:14:12;;;;;;;3.63;2.10;;;;;;;;;;5016901;28;20029;-77
2022/11/17 14:16:39;;;;;;;3.25;1.85;;;;;;;;;;5000583;28;20127;-78
2022/11/17 14:19:13;;;;;;;3.20;2.10;;;;;;;;;;5017242;28;20048;-78
2022/11/17 14:21:58;;;;;;;4.50;2.20;;;;;;;;;;4998559;28;20061;-78
2022/11/17 14:24:23;;;;;;;2.97;2.03;;;;;;;;;;5016231;28;20088;-77
2022/11/17 14:26:48;;;;;;;3.22;2.00;;;;;;;;;;5016427;28;20486;-77
2022/11/17 14:29:14;;;;;;;6.65;2.22;;;;;;;;;;4998610;28;20083;-78
2022/11/17 14:31:39;;;;;;;3.53;2.05;;;;;;;;;;5015318;28;20030;-77
2022/11/17 14:34:04;;;;;;;3.83;2.35;;;;;;;;;;5016933;28;20129;-76
2022/11/17 14:36:31;;;;;;;4.63;2.58;;;;;;;;;;5010891;28;20052;-78
2022/11/17 14:38:57;;;;;;;3.45;1.83;;;;;;;;;;4998341;28;20483;-77
2022/11/17 14:41:22;;;;;;;3.03;1.92;;;;;;;;;;5015570;28;20033;-77
2022/11/17 14:43:48;;;;;;;2.38;1.67;;;;;;;;;;4999351;28;20030;-79
2022/11/17 14:46:18;;;;;;;3.22;1.85;;;;;;;;;;5023250;28;20468;-78
2022/11/17 14:48:43;;;;;;;3.22;2.00;;;;;;;;;;5020308;28;20029;-79
2022/11/17 14:51:09;;;;;;;3.60;2.17;;;;;;;;;;5017755;28;20050;-78
2022/11/17 14:53:34;;;;;;;3.28;1.98;;;;;;;;;;5000999;28;20026;-79
2022/11/17 14:56:06;;;;;;;4.68;2.47;;;;;;;;;;4998778;28;20109;-79
2022/11/17 14:58:31;;;;;;;4.38;2.42;;;;;;;;;;4997740;28;20503;-78
2022/11/17 15:00:56;;;;;;;4.47;2.47;;;;;;;;;;4999921;28;20034;-79
2022/11/17 15:03:22;;;;;;;5.60;2.85;;;;;;;;;;5017287;28;20487;-78
2022/11/17 15:05:47;;;;;;;3.50;2.25;;;;;;;;;;5015074;28;20096;-80
2022/11/17 15:08:13;;;;;;;4.15;2.78;;;;;;;;;;5020471;28;20038;-79
2022/11/17 15:10:44;;;;;;;4.47;2.65;;;;;;;;;;5009548;28;20415;-79
2022/11/17 15:13:10;;;;;;;5.03;2.67;;;;;;;;;;5017866;28;20064;-79
2022/11/17 15:15:35;;;;;;;5.57;3.05;;;;;;;;;;4998142;28;20092;-80
2022/11/17 15:18:01;;;;;;;4.63;2.55;;;;;;;;;;5009634;28;20030;-79
2022/11/17 15:20:28;;;;;;;4.10;2.63;;;;;;;;;;5007011;28;20084;-78
2022/11/17 15:22:53;;;;;;;5.18;3.00;;;;;;;;;;5013798;28;20053;-80
2022/11/17 15:25:18;;;;;;;2.17;1.70;;;;;;;;;;4997989;28;20029;-78
2022/11/17 15:27:44;;;;;;;5.40;2.85;;;;;;;;;;5014569;28;20034;-80
2022/11/17 15:30:10;;;;;;;4.78;2.95;;;;;;;;;;5014464;28;20014;-79
2022/11/17 15:32:35;;;;;;;3.95;2.30;;;;;;;;;;5014904;28;20507;-79